Ana Sayfa
METAR-TAF:

METAR-TAF

Havaalanları :

Lubbock, Teksas, Amerika Birleşik Devletleri

Enlem: 33-40-03N, Boylam: 101-49-17W, yükseklik: 1000 m

Güncel hava durumu gözlemi

Rapor saat 22:53 UTC de 45 dakika önce yapıldı.
Rüzgar batı/kuzeybatıdan 7 kt
Sıcaklık 15°C
Nem 27%
Basınç 1016 hPa
Görüş mesafesi: 16.1 km
20000 ft yükseklikte az bulutlu
25000 ft yükseklikte parçalı bulutlu

METAR: KLBB 122253Z 30007KT 10SM FEW200 SCT250 15/M04 A2999 RMK AO2 SLP137 T01501039

Saat: 17:38 (23:38 UTC)

Tahmin

Rapor saat 23:29 UTC de 9 dakika önce yapıldı.
Ayın 13'si saat 00 UTC'den ayın 13'si saat 24 UTC'ye kadar geçerli Tahmin
Rüzgar değişken yönden 6 kt
Görüş mesafesi: 10 km
25000 ft yükseklikte az bulutlu
Ayın 13'si saat 1800 UTC'den
Rüzgar kuzeybatıdan 16 kt
Görüş mesafesi: 10 km
25000 ft yükseklikte az bulutlu

TAF: KLBB 122329Z 1300/1324 VRB06KT P6SM FEW250 FM131800 31016KT P6SM FEW250

4.000'den fazla havaalanı için hava durumu gözlemleri ve tahminleri (METAR ve TAF raporları).

Kullanılabilir istasyonlar harita üzerinde sarı ve kırmızı noktalarla gösterilir.

İstasyonun adını görmek için fareyi noktanın üzerinde gezdirin.

Sonrasında hava gözlem ve tahminlerini görmek için tıklayın.

Haritayı değiştirmek için: yaklaştırmak için siyah artı işaretli yeşil düğmeye ve uzaklaştırmak için de eksi işaretli düğmeye hızla tıklayın; bitişik haritalar için yeşil okları kullanın.


METAR-TAF: